Vb Bretagne — FMHX — position and weather

sailwx.info

Track history (hours):
 
Tides and Currents Weather Stations Pressure Air Temp Water Temp Dewpoint Dewpoint Depression Visibility Wind Speed Wind Dir Waves Ship Positions

Vb Bretagne

Last reported at 2015-Mar-24 12:26 UTC. Time now 2015-Mar-27 03:40 UTC.
Position N 47°17' W 002°10'.

Length 32 m; draft 4.1 m.

Type: Tug. MMSI: 228234700.

Date/timePositionNaut miles runAvg speedWind from/ knotsBaromVisibWave heightAir tempDewpointWater temp
2015-Mar-24 12:26N 47°17' W 002°10'0 0.0
2015-Mar-24 05:33N 47°17' W 002°11'0 0.1
2015-Mar-24 04:29N 47°17' W 002°11'1 0.1
2015-Mar-23 07:27N 47°16' W 002°12'5 4.8
2015-Mar-23 06:29N 47°18' W 002°06'2 0.0
2015-Mar-21 09:31N 47°18' W 002°09'1 1.4
2015-Mar-21 08:30N 47°17' W 002°10'0 0.0
2015-Mar-19 21:25N 47°17' W 002°10'1 1.2
2015-Mar-19 20:32N 47°16' W 002°11'1 0.1
2015-Mar-19 11:05N 47°17' W 002°10'1 0.5
2015-Mar-19 08:18N 47°16' W 002°12'0 0.0
2015-Mar-19 04:31N 47°16' W 002°12'0 0.0
2015-Mar-19 03:30N 47°16' W 002°12'4 3.7
2015-Mar-19 02:33N 47°18' W 002°08'1 1.0
2015-Mar-19 01:32N 47°18' W 002°09'3 2.7
2015-Mar-19 00:34N 47°16' W 002°12'2 1.6
2015-Mar-18 23:33N 47°17' W 002°10'0 0.1
2015-Mar-18 21:30N 47°17' W 002°10'1 0.1
2015-Mar-18 07:25N 47°16' W 002°12'4 0.9
2015-Mar-18 03:33N 47°18' W 002°08'0 0.3
2015-Mar-18 02:33N 47°18' W 002°07'2 1.7
2015-Mar-18 01:33N 47°17' W 002°10'2 0.9
2015-Mar-17 23:21N 47°16' W 002°12'0 0.0
2015-Mar-17 22:20N 47°16' W 002°12'4 1.8
2015-Mar-17 20:17N 47°18' W 002°08'2 2.9
2015-Mar-17 19:28N 47°17' W 002°10'2 0.1
2015-Mar-17 04:30N 47°18' W 002°09'0 0.0
2015-Mar-17 00:17N 47°18' W 002°09'0 0.0
2015-Mar-16 09:12N 47°18' W 002°09'1 0.7
2015-Mar-16 07:07N 47°18' W 002°07'1 0.5
2015-Mar-16 04:31N 47°18' W 002°05'0 0.0
2015-Mar-16 03:24N 47°18' W 002°05'0 0.0
2015-Mar-16 02:13N 47°18' W 002°05'0 0.0
2015-Mar-16 00:20N 47°18' W 002°05'4 3.4
2015-Mar-15 23:11N 47°17' W 002°10'0 0.0
2015-Mar-14 21:09N 47°17' W 002°10'  
Track history (hours):
 
Tides and Currents Weather Stations Pressure Air Temp Water Temp Dewpoint Dewpoint Depression Visibility Wind Speed Wind Dir Waves Ship Positions

Vb Bretagne

Last reported at 2015-Mar-24 12:26 UTC. Time now 2015-Mar-27 03:40 UTC.
Position N 47°17' W 002°10'.

Length 32 m; draft 4.1 m.

Type: Tug. MMSI: 228234700.

Date/timePositionNaut miles runAvg speedWind from/ knotsBaromVisibWave heightAir tempDewpointWater temp
2015-Mar-24 12:26N 47°17' W 002°10'0 0.0
2015-Mar-24 05:33N 47°17' W 002°11'0 0.1
2015-Mar-24 04:29N 47°17' W 002°11'1 0.1
2015-Mar-23 07:27N 47°16' W 002°12'5 4.8
2015-Mar-23 06:29N 47°18' W 002°06'2 0.0
2015-Mar-21 09:31N 47°18' W 002°09'1 1.4
2015-Mar-21 08:30N 47°17' W 002°10'0 0.0
2015-Mar-19 21:25N 47°17' W 002°10'1 1.2
2015-Mar-19 20:32N 47°16' W 002°11'1 0.1
2015-Mar-19 11:05N 47°17' W 002°10'1 0.5
2015-Mar-19 08:18N 47°16' W 002°12'0 0.0
2015-Mar-19 04:31N 47°16' W 002°12'0 0.0
2015-Mar-19 03:30N 47°16' W 002°12'4 3.7
2015-Mar-19 02:33N 47°18' W 002°08'1 1.0
2015-Mar-19 01:32N 47°18' W 002°09'3 2.7
2015-Mar-19 00:34N 47°16' W 002°12'2 1.6
2015-Mar-18 23:33N 47°17' W 002°10'0 0.1
2015-Mar-18 21:30N 47°17' W 002°10'1 0.1
2015-Mar-18 07:25N 47°16' W 002°12'4 0.9
2015-Mar-18 03:33N 47°18' W 002°08'0 0.3
2015-Mar-18 02:33N 47°18' W 002°07'2 1.7
2015-Mar-18 01:33N 47°17' W 002°10'2 0.9
2015-Mar-17 23:21N 47°16' W 002°12'0 0.0
2015-Mar-17 22:20N 47°16' W 002°12'4 1.8
2015-Mar-17 20:17N 47°18' W 002°08'2 2.9
2015-Mar-17 19:28N 47°17' W 002°10'2 0.1
2015-Mar-17 04:30N 47°18' W 002°09'0 0.0
2015-Mar-17 00:17N 47°18' W 002°09'0 0.0
2015-Mar-16 09:12N 47°18' W 002°09'1 0.7
2015-Mar-16 07:07N 47°18' W 002°07'1 0.5
2015-Mar-16 04:31N 47°18' W 002°05'0 0.0
2015-Mar-16 03:24N 47°18' W 002°05'0 0.0
2015-Mar-16 02:13N 47°18' W 002°05'0 0.0
2015-Mar-16 00:20N 47°18' W 002°05'4 3.4
2015-Mar-15 23:11N 47°17' W 002°10'0 0.0
2015-Mar-14 21:09N 47°17' W 002°10'  

Dump ship's entire track history